Ortonville, Minnesota
Current Conditions -  °F | °C
As of 7:53 AM on Friday 24 Oct 2014 (Local Time) from KVVV Reporting Station
Haze Haze  
Wind Chill: 43°   Ceiling: Unl
Heat Index: 43°   Visibility: 5mi
Dew Point: 39°   Wind: 0mph
Humidity: 87%   Direction: NA
Pressure: 29.83"   Gusts: NA
Location:  45.3°N, 96.44°W
Report Text: KVVV 241253Z AUTO 00000KT 5SM BR CLR 06/04 A2983 RMK AO2
Loading
Personal Weather Stations






























Interactive Weather Map
Tropical Storm Tracking
New forecast layout! Learn more

10-Day Weather Forecast

Advertisements
Track Severe Weather on mobile